Time;durP1;ratioP1;P1;durP2;ratioP2;P2;SDS_P1;SDS_P2;PMS_P1;PMS_P2;Temp;Humidity;BMP_temperature;BMP_pressure;BME280_temperature;BME280_humidity;BME280_pressure;Samples;Min_cycle;Max_cycle;Signal;HPM_P1;HPM_P2
2023/03/16 00:00:39;;;;;;;10.23;2.55;;;-0.90;99.90;;;;;;5004984;28;20029;-51
2023/03/16 00:03:04;;;;;;;7.00;2.20;;;-0.90;99.90;;;;;;5006441;28;20023;-55
2023/03/16 00:05:30;;;;;;;3.60;2.13;;;-0.90;99.90;;;;;;5001869;28;20440;-53
2023/03/16 00:07:56;;;;;;;6.00;2.67;;;-0.90;99.90;;;;;;4999126;28;20026;-54
2023/03/16 00:10:26;;;;;;;7.38;2.35;;;-0.90;99.90;;;;;;4987621;28;20041;-55
2023/03/16 00:12:52;;;;;;;6.38;2.20;;;-1.00;99.90;;;;;;4995369;28;20030;-53
2023/03/16 00:15:18;;;;;;;5.97;2.13;;;-1.00;99.90;;;;;;4996644;28;20054;-53
2023/03/16 00:17:47;;;;;;;3.10;2.15;;;-1.00;99.90;;;;;;4997537;28;20061;-56
2023/03/16 00:20:16;;;;;;;3.83;2.25;;;-1.00;99.90;;;;;;4995420;28;20025;-56
2023/03/16 00:22:42;;;;;;;3.92;2.17;;;-1.00;99.90;;;;;;5000148;28;20456;-52
2023/03/16 00:25:10;;;;;;;9.90;2.85;;;-1.00;99.90;;;;;;5000942;28;20073;-53
2023/03/16 00:27:35;;;;;;;9.48;3.15;;;-1.10;99.90;;;;;;4999666;28;20030;-52
2023/03/16 00:30:01;;;;;;;5.75;1.90;;;-1.10;99.90;;;;;;4998764;28;20057;-55
2023/03/16 00:32:30;;;;;;;5.88;1.92;;;-1.10;99.90;;;;;;4996874;28;20034;-55
2023/03/16 00:34:57;;;;;;;4.40;2.38;;;-1.10;99.90;;;;;;4991583;28;20034;-52
2023/03/16 00:37:24;;;;;;;3.97;2.20;;;-1.20;99.90;;;;;;4991472;28;20030;-52
2023/03/16 00:39:51;;;;;;;6.47;2.42;;;-1.20;99.90;;;;;;4988469;28;20021;-51
2023/03/16 00:42:18;;;;;;;6.93;3.00;;;-1.20;99.90;;;;;;4995063;28;20025;-55
2023/03/16 00:44:44;;;;;;;6.13;2.25;;;-1.20;99.90;;;;;;4999395;28;20026;-55
2023/03/16 00:47:14;;;;;;;5.63;3.22;;;-1.20;99.90;;;;;;5001021;28;20057;-52
2023/03/16 00:49:41;;;;;;;4.75;2.38;;;-1.30;99.90;;;;;;4997874;28;20515;-54
2023/03/16 00:52:08;;;;;;;2.60;1.92;;;-1.30;99.90;;;;;;4991951;28;20042;-51
2023/03/16 00:54:34;;;;;;;6.43;2.80;;;-1.30;99.90;;;;;;4996737;28;20501;-56
2023/03/16 00:57:00;;;;;;;3.92;1.60;;;-1.30;99.90;;;;;;4997830;28;20109;-53
2023/03/16 00:59:26;;;;;;;10.73;2.85;;;-1.30;99.90;;;;;;4987926;28;20540;-54
2023/03/16 01:01:52;;;;;;;10.32;2.13;;;-1.30;99.90;;;;;;5000710;28;20418;-54
2023/03/16 01:04:18;;;;;;;4.18;2.13;;;-1.40;99.90;;;;;;5000246;28;20037;-55
2023/03/16 01:06:44;;;;;;;3.45;2.30;;;-1.40;99.90;;;;;;4998559;28;20401;-53
2023/03/16 01:09:11;;;;;;;8.55;2.67;;;-1.40;99.90;;;;;;4996884;28;20069;-55
2023/03/16 01:11:37;;;;;;;4.97;2.35;;;-1.40;99.90;;;;;;4993474;28;20508;-53
2023/03/16 01:14:03;;;;;;;4.00;2.53;;;-1.40;99.90;;;;;;4999717;28;20452;-52
2023/03/16 01:16:29;;;;;;;5.32;2.10;;;-1.40;99.90;;;;;;4989038;28;20066;-55
2023/03/16 01:18:57;;;;;;;4.95;2.33;;;-1.50;99.90;;;;;;5002443;28;20029;-57
2023/03/16 01:21:23;;;;;;;4.78;2.72;;;-1.50;99.90;;;;;;4994403;28;20026;-53
2023/03/16 01:23:49;;;;;;;6.00;2.65;;;-1.50;99.90;;;;;;4991222;28;20026;-56
2023/03/16 01:26:16;;;;;;;7.32;3.03;;;-1.50;99.90;;;;;;4997513;28;20105;-54
2023/03/16 01:28:43;;;;;;;8.60;2.40;;;-1.50;99.90;;;;;;4979462;28;20124;-55
2023/03/16 01:31:11;;;;;;;6.65;2.22;;;-1.50;99.90;;;;;;4988179;28;20104;-52
2023/03/16 01:33:37;;;;;;;9.98;2.58;;;-1.60;99.90;;;;;;5004322;28;20034;-55
2023/03/16 01:36:06;;;;;;;5.03;2.28;;;-1.60;99.90;;;;;;4998161;28;20034;-54
2023/03/16 01:38:32;;;;;;;6.18;2.55;;;-1.60;99.90;;;;;;4997035;28;20022;-53
2023/03/16 01:40:59;;;;;;;5.07;2.55;;;-1.60;99.90;;;;;;4997005;28;20034;-53
2023/03/16 01:43:27;;;;;;;6.15;2.47;;;-1.60;99.90;;;;;;4997252;28;20037;-52
2023/03/16 01:46:05;;;;;;;7.57;2.58;;;-1.60;99.90;;;;;;4992235;28;20326;-55
2023/03/16 01:48:37;;;;;;;7.72;3.03;;;-1.60;99.90;;;;;;4991208;28;20054;-52
2023/03/16 01:51:24;;;;;;;10.43;2.78;;;-1.70;99.90;;;;;;5000828;28;20034;-51
2023/03/16 01:53:54;;;;;;;10.68;2.53;;;-1.70;99.90;;;;;;4987091;28;20045;-56
2023/03/16 01:56:26;;;;;;;9.07;2.70;;;-1.70;99.90;;;;;;4999608;28;20026;-55
2023/03/16 01:58:57;;;;;;;3.83;2.58;;;-1.70;99.90;;;;;;4988417;28;20412;-53
2023/03/16 02:01:25;;;;;;;7.53;2.40;;;-1.70;99.90;;;;;;5000209;28;20058;-52
2023/03/16 02:03:54;;;;;;;4.93;2.42;;;-1.70;99.90;;;;;;4986152;28;20025;-54
2023/03/16 02:06:22;;;;;;;5.13;2.60;;;-1.70;99.90;;;;;;4998282;28;20034;-57
2023/03/16 02:08:49;;;;;;;9.02;2.95;;;-1.70;99.90;;;;;;4995359;28;20252;-51
2023/03/16 02:11:18;;;;;;;3.55;2.60;;;-1.70;99.90;;;;;;4995757;28;20022;-53
2023/03/16 02:13:44;;;;;;;8.40;3.08;;;-1.70;99.90;;;;;;4996467;28;20085;-54
2023/03/16 02:16:18;;;;;;;3.67;2.50;;;-1.70;99.90;;;;;;4995349;28;20027;-58
2023/03/16 02:18:45;;;;;;;7.80;3.47;;;-1.80;99.90;;;;;;4999485;28;20019;-53
2023/03/16 02:21:19;;;;;;;6.45;2.55;;;-1.80;99.90;;;;;;5000019;28;20053;-52
2023/03/16 02:23:47;;;;;;;8.68;3.10;;;-1.80;99.90;;;;;;4998682;28;20037;-54
2023/03/16 02:26:34;;;;;;;5.65;2.88;;;-1.80;99.90;;;;;;5005110;28;20173;-52
2023/03/16 02:29:19;;;;;;;6.18;2.92;;;-1.80;99.90;;;;;;4994453;28;20085;-53
2023/03/16 02:31:45;;;;;;;6.35;2.90;;;-1.80;99.90;;;;;;5003248;28;20265;-53
2023/03/16 02:34:14;;;;;;;10.93;3.33;;;-1.80;99.90;;;;;;5003045;28;20026;-57
2023/03/16 02:36:41;;;;;;;7.40;3.10;;;-1.80;99.90;;;;;;4998780;28;20058;-53
2023/03/16 02:39:06;;;;;;;9.15;3.20;;;-1.90;99.90;;;;;;5000619;28;20032;-51
2023/03/16 02:41:33;;;;;;;7.15;3.63;;;-1.90;99.90;;;;;;5001347;28;20022;-53
2023/03/16 02:44:14;;;;;;;9.20;4.03;;;-1.90;99.90;;;;;;5003839;28;20093;-53
2023/03/16 02:46:42;;;;;;;7.18;3.42;;;-1.90;99.90;;;;;;4998574;28;20040;-52
2023/03/16 02:49:31;;;;;;;7.85;3.25;;;-1.90;99.90;;;;;;5011768;28;20033;-52
2023/03/16 02:51:56;;;;;;;6.88;3.60;;;-1.90;99.90;;;;;;4988837;28;20026;-51
2023/03/16 02:54:23;;;;;;;3.65;3.15;;;-1.90;99.90;;;;;;4995189;28;20055;-50
2023/03/16 02:56:48;;;;;;;8.27;3.78;;;-1.90;99.90;;;;;;5002943;28;20025;-51
2023/03/16 02:59:14;;;;;;;7.13;3.33;;;-1.80;99.90;;;;;;4996983;28;20023;-51
2023/03/16 03:01:40;;;;;;;7.25;3.30;;;-1.80;99.90;;;;;;4996592;28;20031;-53
2023/03/16 03:04:06;;;;;;;7.53;3.28;;;-1.80;99.90;;;;;;5003611;28;20060;-55
2023/03/16 03:06:32;;;;;;;12.32;4.15;;;-1.80;99.90;;;;;;4997297;28;20034;-53
2023/03/16 03:08:58;;;;;;;11.32;3.90;;;-1.80;99.90;;;;;;5001665;28;20106;-51
2023/03/16 03:11:24;;;;;;;8.57;3.85;;;-1.80;99.90;;;;;;4986247;28;20030;-54
2023/03/16 03:13:50;;;;;;;8.38;4.30;;;-1.80;99.90;;;;;;5006072;28;20366;-50
2023/03/16 03:16:15;;;;;;;10.93;3.85;;;-1.80;99.90;;;;;;5002518;28;20104;-51
2023/03/16 03:18:41;;;;;;;6.25;3.92;;;-1.80;99.90;;;;;;5004053;28;20504;-56
2023/03/16 03:21:07;;;;;;;9.40;4.40;;;-1.80;99.90;;;;;;4998307;28;20026;-52
2023/03/16 03:23:34;;;;;;;7.95;3.50;;;-1.80;99.90;;;;;;5000492;28;20102;-52
2023/03/16 03:26:01;;;;;;;9.20;3.95;;;-1.80;99.90;;;;;;5003092;28;20045;-49
2023/03/16 03:28:27;;;;;;;8.90;4.05;;;-1.90;99.90;;;;;;5001541;28;20029;-49
2023/03/16 03:30:53;;;;;;;5.38;4.15;;;-1.80;99.90;;;;;;4998935;28;20018;-51
2023/03/16 03:33:18;;;;;;;6.47;4.53;;;-1.80;99.90;;;;;;5003076;28;20018;-55
2023/03/16 03:35:44;;;;;;;6.78;4.15;;;-1.80;99.90;;;;;;4992507;28;20033;-51
2023/03/16 03:38:10;;;;;;;9.02;3.92;;;-1.80;99.90;;;;;;5003489;28;20021;-52
2023/03/16 03:40:36;;;;;;;6.75;3.50;;;-1.80;99.90;;;;;;5000725;28;20022;-50
2023/03/16 03:43:03;;;;;;;4.22;3.20;;;-1.80;99.90;;;;;;4995385;28;20436;-51
2023/03/16 03:45:28;;;;;;;7.10;4.47;;;-1.80;99.90;;;;;;4990845;28;20037;-53
2023/03/16 03:47:54;;;;;;;7.65;3.53;;;-1.80;99.90;;;;;;4991277;28;20025;-53
2023/03/16 03:50:20;;;;;;;7.85;4.05;;;-1.80;99.90;;;;;;5001170;28;20066;-52
2023/03/16 03:52:47;;;;;;;9.60;3.88;;;-1.80;99.90;;;;;;4999128;28;20030;-56
2023/03/16 03:55:12;;;;;;;4.32;3.05;;;-1.80;99.90;;;;;;4998621;28;20118;-54
2023/03/16 03:57:38;;;;;;;5.97;3.25;;;-1.80;99.90;;;;;;4998667;28;20105;-51
2023/03/16 04:00:10;;;;;;;4.18;3.35;;;-1.90;99.90;;;;;;4996937;28;20029;-51
2023/03/16 04:02:37;;;;;;;6.88;3.65;;;-1.90;99.90;;;;;;5002590;28;20058;-53
2023/03/16 04:05:03;;;;;;;8.60;3.25;;;-1.90;99.90;;;;;;5001882;28;20026;-53
2023/03/16 04:07:29;;;;;;;4.93;2.97;;;-1.90;99.90;;;;;;4994863;28;20461;-52
2023/03/16 04:09:55;;;;;;;8.05;4.57;;;-1.90;99.90;;;;;;5000664;28;20049;-51
2023/03/16 04:12:21;;;;;;;5.40;3.85;;;-1.90;99.90;;;;;;4994390;28;20049;-53
2023/03/16 04:14:46;;;;;;;7.15;3.88;;;-1.90;99.90;;;;;;4992254;28;20377;-51
2023/03/16 04:17:12;;;;;;;5.38;3.45;;;-1.90;99.90;;;;;;4996804;28;20026;-51
2023/03/16 04:19:38;;;;;;;3.97;3.15;;;-1.90;99.90;;;;;;5004251;28;20018;-55
2023/03/16 04:22:04;;;;;;;10.25;3.00;;;-1.90;99.90;;;;;;4997940;28;20511;-53
2023/03/16 04:24:33;;;;;;;5.72;3.30;;;-1.90;99.90;;;;;;4982789;28;20033;-53
2023/03/16 04:26:59;;;;;;;3.97;3.03;;;-1.80;99.90;;;;;;4995171;28;20101;-53
2023/03/16 04:29:25;;;;;;;6.47;3.03;;;-1.80;99.90;;;;;;4987296;28;20030;-53
2023/03/16 04:31:52;;;;;;;8.77;3.13;;;-1.80;99.90;;;;;;4998571;28;20027;-53
2023/03/16 04:34:19;;;;;;;11.70;4.30;;;-1.80;99.90;;;;;;4997463;28;20033;-52
2023/03/16 04:36:44;;;;;;;7.03;3.45;;;-1.80;99.90;;;;;;4998566;28;20543;-57
2023/03/16 04:39:10;;;;;;;5.18;3.20;;;-1.70;99.90;;;;;;4997412;28;20030;-54
2023/03/16 04:41:36;;;;;;;4.97;3.17;;;-1.70;99.90;;;;;;4994990;28;20038;-50
2023/03/16 04:44:01;;;;;;;6.57;3.00;;;-1.70;99.90;;;;;;5002255;28;20022;-53
2023/03/16 04:46:28;;;;;;;10.82;3.45;;;-1.70;99.90;;;;;;4990603;28;20031;-53
2023/03/16 04:48:57;;;;;;;3.13;2.65;;;-1.70;99.90;;;;;;4998210;28;20510;-55
2023/03/16 04:51:23;;;;;;;9.85;3.03;;;-1.70;99.90;;;;;;4992322;28;20034;-54
2023/03/16 04:53:48;;;;;;;5.75;3.30;;;-1.70;99.90;;;;;;4993827;28;20033;-51
2023/03/16 04:56:18;;;;;;;5.65;3.22;;;-1.70;99.90;;;;;;4994952;28;20036;-50
2023/03/16 04:58:48;;;;;;;5.13;2.70;;;-1.70;99.90;;;;;;4998169;28;20046;-54
2023/03/16 05:01:14;;;;;;;4.50;2.60;;;-1.60;99.90;;;;;;4998247;28;20031;-55
2023/03/16 05:03:40;;;;;;;5.03;3.10;;;-1.60;99.90;;;;;;4990109;28;20026;-49
2023/03/16 05:06:06;;;;;;;9.05;3.25;;;-1.60;99.90;;;;;;5001077;28;20022;-54
2023/03/16 05:08:32;;;;;;;4.47;3.83;;;-1.60;99.90;;;;;;5000191;28;20034;-54
2023/03/16 05:10:58;;;;;;;5.57;3.13;;;-1.60;99.90;;;;;;5000029;28;20540;-55
2023/03/16 05:13:23;;;;;;;10.45;3.00;;;-1.60;99.90;;;;;;4999647;28;20030;-56
2023/03/16 05:15:52;;;;;;;3.97;2.83;;;-1.60;99.90;;;;;;5001206;28;20026;-51
2023/03/16 05:18:19;;;;;;;5.07;2.85;;;-1.50;99.90;;;;;;5001640;28;20473;-55
2023/03/16 05:20:44;;;;;;;4.13;3.05;;;-1.50;99.90;;;;;;5002085;28;20524;-51
2023/03/16 05:23:10;;;;;;;6.28;2.85;;;-1.50;99.90;;;;;;5000895;28;20022;-55
2023/03/16 05:25:36;;;;;;;3.72;2.60;;;-1.50;99.90;;;;;;4999125;28;20034;-56
2023/03/16 05:28:02;;;;;;;7.00;3.00;;;-1.50;99.90;;;;;;5001487;28;20061;-50
2023/03/16 05:30:27;;;;;;;7.15;2.63;;;-1.40;99.90;;;;;;4999244;28;20489;-53
2023/03/16 05:32:55;;;;;;;4.38;2.72;;;-1.40;99.90;;;;;;5001321;28;20021;-50
2023/03/16 05:35:21;;;;;;;7.43;2.95;;;-1.40;99.90;;;;;;5000443;28;20026;-53
2023/03/16 05:37:46;;;;;;;7.63;3.13;;;-1.40;99.90;;;;;;5000245;28;20030;-56
2023/03/16 05:40:16;;;;;;;5.25;2.50;;;-1.40;99.90;;;;;;4999163;28;20026;-54
2023/03/16 05:42:47;;;;;;;8.20;2.95;;;-1.40;99.90;;;;;;4993651;28;20104;-52
2023/03/16 05:45:15;;;;;;;3.40;2.70;;;-1.40;99.90;;;;;;4990324;28;20029;-52
2023/03/16 05:47:42;;;;;;;4.40;3.00;;;-1.30;99.90;;;;;;4996561;28;20559;-53
2023/03/16 05:50:10;;;;;;;2.72;2.45;;;-1.40;99.90;;;;;;4995922;28;20092;-54
2023/03/16 05:52:37;;;;;;;3.28;2.75;;;-1.30;99.90;;;;;;4998681;28;20031;-50
2023/03/16 05:57:28;;;;;;;2.90;2.42;;;-1.30;99.90;;;;;;5069220;23;20049;-54
2023/03/16 05:59:53;;;;;;;5.10;2.90;;;-1.30;99.90;;;;;;5048070;28;20021;-55
2023/03/16 06:02:19;;;;;;;4.38;2.90;;;-1.20;99.90;;;;;;5043684;28;20017;-56
2023/03/16 06:04:44;;;;;;;5.05;2.75;;;-1.20;99.90;;;;;;5039885;28;20028;-53
2023/03/16 06:07:10;;;;;;;3.25;2.40;;;-1.20;99.90;;;;;;5049230;28;20395;-56
2023/03/16 06:09:36;;;;;;;6.50;2.75;;;-1.10;99.90;;;;;;5045560;28;20095;-56
2023/03/16 06:12:02;;;;;;;6.25;3.10;;;-1.10;99.90;;;;;;5051100;28;20025;-54
2023/03/16 06:14:29;;;;;;;7.03;2.63;;;-1.10;99.90;;;;;;5045757;28;20024;-57
2023/03/16 06:16:54;;;;;;;5.63;2.65;;;-1.00;99.90;;;;;;5042340;28;20025;-55
2023/03/16 06:19:20;;;;;;;7.53;2.75;;;-1.00;99.90;;;;;;5043575;28;20083;-53
2023/03/16 06:21:46;;;;;;;4.30;2.42;;;-1.00;99.90;;;;;;5049962;28;20509;-57
2023/03/16 06:24:11;;;;;;;4.57;2.78;;;-0.90;99.90;;;;;;5050766;28;20158;-57
2023/03/16 06:26:37;;;;;;;3.72;2.10;;;-0.90;99.90;;;;;;5047427;28;20060;-56
2023/03/16 06:29:03;;;;;;;6.38;2.78;;;-0.80;99.90;;;;;;5048033;28;20031;-56
2023/03/16 06:31:29;;;;;;;6.57;2.58;;;-0.80;99.90;;;;;;5040478;28;20028;-53
2023/03/16 06:33:55;;;;;;;4.22;2.65;;;-0.70;99.90;;;;;;5041118;28;20086;-55
2023/03/16 06:36:20;;;;;;;3.85;2.47;;;-0.60;99.90;;;;;;5043922;28;20033;-55
2023/03/16 06:38:46;;;;;;;7.65;2.75;;;-0.60;99.90;;;;;;5043338;28;20045;-58
2023/03/16 06:41:11;;;;;;;4.97;2.80;;;-0.50;99.90;;;;;;5044218;28;20104;-56
2023/03/16 06:43:37;;;;;;;4.18;2.63;;;-0.50;99.90;;;;;;5046424;28;20408;-56
2023/03/16 06:46:03;;;;;;;5.15;2.47;;;-0.40;99.90;;;;;;5047496;28;20376;-53
2023/03/16 06:48:28;;;;;;;3.63;2.20;;;-0.40;99.90;;;;;;5041665;28;20038;-55
2023/03/16 06:50:54;;;;;;;4.78;2.70;;;-0.30;99.90;;;;;;5048525;28;20116;-57
2023/03/16 06:53:20;;;;;;;3.65;2.00;;;-0.30;99.90;;;;;;5046553;28;20103;-53
2023/03/16 06:55:47;;;;;;;7.85;2.60;;;-0.20;99.90;;;;;;5050139;28;20082;-55
2023/03/16 06:58:12;;;;;;;2.97;2.38;;;-0.20;99.90;;;;;;5039835;28;20072;-58
2023/03/16 07:00:38;;;;;;;5.65;2.33;;;-0.10;99.90;;;;;;5043666;28;20491;-56
2023/03/16 07:03:04;;;;;;;7.78;2.53;;;-0.10;99.90;;;;;;5047780;28;20032;-53
2023/03/16 07:05:30;;;;;;;4.00;2.33;;;-0.10;99.90;;;;;;5042625;28;20025;-57
2023/03/16 07:07:56;;;;;;;3.17;2.38;;;0.00;99.90;;;;;;5047189;28;20064;-54
2023/03/16 07:10:22;;;;;;;2.45;2.13;;;0.00;99.90;;;;;;5042179;28;20033;-56
2023/03/16 07:12:49;;;;;;;7.60;2.55;;;0.10;99.90;;;;;;5047748;28;20120;-55
2023/03/16 07:15:14;;;;;;;4.05;2.90;;;0.10;99.90;;;;;;5045689;28;20336;-54
2023/03/16 07:17:41;;;;;;;5.70;2.78;;;0.20;99.90;;;;;;5047401;28;20015;-54
2023/03/16 07:20:09;;;;;;;4.88;2.60;;;0.20;99.90;;;;;;5039684;28;20096;-56
2023/03/16 07:22:36;;;;;;;3.67;2.65;;;0.30;99.90;;;;;;5050761;28;20021;-54
2023/03/16 07:25:02;;;;;;;3.60;2.88;;;0.40;99.90;;;;;;5042024;28;20120;-56
2023/03/16 07:27:28;;;;;;;5.03;3.05;;;0.50;99.90;;;;;;5040595;28;20104;-57
2023/03/16 07:29:54;;;;;;;7.75;2.58;;;0.50;99.90;;;;;;5046309;28;20024;-57
2023/03/16 07:32:20;;;;;;;5.90;2.63;;;0.60;99.90;;;;;;5048479;28;20029;-57
2023/03/16 07:34:46;;;;;;;5.75;2.45;;;0.70;99.90;;;;;;5046110;28;20018;-56
2023/03/16 07:37:12;;;;;;;5.43;2.13;;;0.70;99.90;;;;;;5045519;28;20021;-56
2023/03/16 07:39:38;;;;;;;5.57;2.72;;;0.80;99.90;;;;;;5050494;28;20017;-56
2023/03/16 07:42:03;;;;;;;4.70;2.30;;;0.90;99.90;;;;;;5046933;28;20507;-54
2023/03/16 07:44:30;;;;;;;4.05;2.13;;;0.90;99.90;;;;;;5049108;28;20025;-56
2023/03/16 07:46:55;;;;;;;10.38;2.92;;;0.90;99.90;;;;;;5046310;28;20040;-53
2023/03/16 07:49:21;;;;;;;4.82;2.42;;;0.90;99.90;;;;;;5046591;28;20017;-54
2023/03/16 07:51:47;;;;;;;4.85;3.28;;;0.90;99.90;;;;;;5050559;28;20025;-57
2023/03/16 07:54:13;;;;;;;3.75;2.55;;;1.00;99.90;;;;;;5048248;28;20036;-55
2023/03/16 07:56:39;;;;;;;5.88;2.58;;;1.10;99.90;;;;;;5044026;28;20341;-57
2023/03/16 07:59:05;;;;;;;5.47;2.40;;;1.20;99.90;;;;;;5045764;28;20032;-58
2023/03/16 08:01:30;;;;;;;5.72;2.53;;;1.30;99.90;;;;;;5043482;28;20025;-58
2023/03/16 08:03:56;;;;;;;4.82;2.42;;;1.40;99.90;;;;;;5046734;28;20489;-53
2023/03/16 08:06:24;;;;;;;8.48;2.55;;;1.50;99.90;;;;;;5046547;28;20044;-56
2023/03/16 08:08:50;;;;;;;6.25;2.35;;;1.70;99.90;;;;;;5046729;28;20108;-53
2023/03/16 08:11:22;;;;;;;3.63;2.22;;;1.80;99.90;;;;;;5044334;28;20159;-55
2023/03/16 08:13:55;;;;;;;3.78;2.33;;;1.90;99.90;;;;;;5045869;28;20502;-56
2023/03/16 08:16:25;;;;;;;3.60;2.90;;;2.00;99.90;;;;;;5047183;28;20108;-55
2023/03/16 08:18:51;;;;;;;5.43;2.70;;;2.20;99.90;;;;;;5040592;28;20143;-55
2023/03/16 08:21:19;;;;;;;7.70;2.70;;;2.30;99.90;;;;;;5047209;28;20099;-57
2023/03/16 08:23:48;;;;;;;4.05;2.03;;;2.50;99.90;;;;;;5049717;28;21089;-56
2023/03/16 08:26:18;;;;;;;7.05;2.60;;;2.70;99.90;;;;;;5046876;28;20437;-53
2023/03/16 08:28:45;;;;;;;4.68;2.13;;;2.80;99.90;;;;;;5047105;28;20031;-59
2023/03/16 08:31:12;;;;;;;7.03;2.38;;;2.90;99.90;;;;;;5038576;28;20021;-49
2023/03/16 08:33:39;;;;;;;3.65;1.55;;;3.00;99.90;;;;;;5045684;28;20107;-55
2023/03/16 08:36:06;;;;;;;6.22;2.28;;;3.10;99.90;;;;;;5044312;28;20040;-53
2023/03/16 08:38:32;;;;;;;3.78;2.28;;;3.20;99.90;;;;;;5040475;28;20256;-59
2023/03/16 08:40:59;;;;;;;6.15;2.78;;;3.30;99.90;;;;;;5038409;28;20086;-58
2023/03/16 08:43:25;;;;;;;3.53;1.95;;;3.50;99.90;;;;;;5041996;28;20456;-59
2023/03/16 08:45:51;;;;;;;9.02;2.00;;;3.60;99.90;;;;;;5047358;28;20021;-57
2023/03/16 08:48:17;;;;;;;3.55;2.30;;;3.80;99.90;;;;;;5047133;28;20051;-56
2023/03/16 08:50:43;;;;;;;3.70;1.70;;;4.10;99.90;;;;;;5046618;28;20035;-56
2023/03/16 08:53:10;;;;;;;5.57;2.13;;;4.30;99.90;;;;;;5040178;28;20020;-57
2023/03/16 08:55:36;;;;;;;4.82;2.03;;;4.50;99.90;;;;;;5047276;28;20031;-60
2023/03/16 08:58:02;;;;;;;5.30;2.13;;;4.70;99.90;;;;;;5045342;28;20021;-54
2023/03/16 09:00:28;;;;;;;7.68;1.95;;;4.80;99.90;;;;;;5048050;28;20021;-58
2023/03/16 09:02:54;;;;;;;4.60;2.33;;;5.10;99.90;;;;;;5041933;28;20541;-54
2023/03/16 09:05:20;;;;;;;3.15;1.98;;;5.20;99.90;;;;;;5047708;28;20020;-54
2023/03/16 09:07:46;;;;;;;4.90;2.17;;;5.30;99.90;;;;;;5046471;28;20108;-56
2023/03/16 09:10:14;;;;;;;5.00;2.03;;;5.50;99.90;;;;;;5047646;28;20096;-52
2023/03/16 09:12:41;;;;;;;3.85;1.85;;;5.60;99.90;;;;;;5040397;28;20017;-54
2023/03/16 09:15:09;;;;;;;6.10;1.85;;;5.80;99.90;;;;;;5044701;28;20017;-56
2023/03/16 09:17:35;;;;;;;3.30;1.50;;;5.80;99.90;;;;;;5047654;28;20021;-53
2023/03/16 09:20:02;;;;;;;8.00;1.67;;;5.90;99.90;;;;;;5042683;28;20022;-53
2023/03/16 09:22:27;;;;;;;5.65;1.83;;;5.90;99.90;;;;;;5048989;28;20017;-57
2023/03/16 09:24:53;;;;;;;4.13;1.73;;;6.00;99.90;;;;;;5045453;28;20064;-60
2023/03/16 09:27:19;;;;;;;4.68;2.20;;;6.10;99.90;;;;;;5049240;28;20163;-54
2023/03/16 09:29:45;;;;;;;5.75;1.88;;;6.20;99.90;;;;;;5047272;28;20079;-53
2023/03/16 09:32:11;;;;;;;3.03;1.65;;;6.20;99.90;;;;;;5049695;28;20024;-56
2023/03/16 09:34:38;;;;;;;4.75;1.67;;;6.30;99.90;;;;;;5051376;28;20619;-55
2023/03/16 09:37:04;;;;;;;3.60;1.38;;;6.30;99.90;;;;;;5046493;28;20021;-56
2023/03/16 09:39:30;;;;;;;1.67;1.25;;;6.50;99.90;;;;;;5053284;28;20027;-58
2023/03/16 09:42:23;;;;;;;3.33;1.65;;;6.50;99.90;;;;;;5049504;28;20041;-54
2023/03/16 09:45:04;;;;;;;5.00;1.45;;;6.60;99.90;;;;;;5051870;28;20021;-54
2023/03/16 09:47:33;;;;;;;2.70;1.73;;;6.80;99.90;;;;;;5048218;28;20127;-59
2023/03/16 09:50:07;;;;;;;4.95;1.80;;;6.80;99.90;;;;;;5050714;28;20017;-55
2023/03/16 09:52:45;;;;;;;3.03;1.45;;;6.90;99.90;;;;;;5051841;28;20021;-54
2023/03/16 09:55:26;;;;;;;2.38;1.15;;;7.00;99.90;;;;;;5052791;28;20057;-55
2023/03/16 09:57:53;;;;;;;5.63;1.45;;;7.00;99.90;;;;;;5047084;28;20503;-57
2023/03/16 10:00:24;;;;;;;3.50;1.15;;;7.00;99.90;;;;;;5051159;28;20060;-53
2023/03/16 10:03:14;;;;;;;3.08;1.23;;;7.00;99.90;;;;;;5044659;28;20053;-55
2023/03/16 10:05:40;;;;;;;3.67;1.58;;;7.00;99.90;;;;;;5046312;28;20025;-53
2023/03/16 10:08:17;;;;;;;3.78;1.38;;;7.00;99.90;;;;;;5048954;28;20577;-52
2023/03/16 10:11:04;;;;;;;3.85;1.45;;;7.00;99.90;;;;;;5051119;28;20033;-56
2023/03/16 10:14:00;;;;;;;2.83;1.27;;;7.00;99.90;;;;;;5047972;28;20195;-55
2023/03/16 10:16:45;;;;;;;4.28;1.75;;;7.00;99.90;;;;;;5044345;28;20025;-55
2023/03/16 10:19:37;;;;;;;6.00;1.33;;;7.10;99.90;;;;;;5047246;28;20021;-53
2023/03/16 10:22:16;;;;;;;3.60;1.10;;;7.20;99.90;;;;;;5051124;28;20487;-51
2023/03/16 10:24:53;;;;;;;3.95;1.33;;;7.20;99.90;;;;;;5044309;28;20284;-54
2023/03/16 10:27:27;;;;;;;5.28;1.27;;;7.20;99.90;;;;;;5047046;28;20028;-57
2023/03/16 10:29:53;;;;;;;3.47;1.13;;;7.30;99.90;;;;;;5046997;28;20443;-53
2023/03/16 10:32:19;;;;;;;3.63;1.17;;;7.40;99.90;;;;;;5049620;28;20361;-54
2023/03/16 10:35:02;;;;;;;0.90;0.80;;;7.50;99.90;;;;;;5042466;28;20036;-55
2023/03/16 10:37:29;;;;;;;3.75;1.27;;;7.60;99.90;;;;;;5045730;28;20024;-54
2023/03/16 10:39:56;;;;;;;3.05;1.20;;;7.60;99.90;;;;;;5049576;28;20032;-59
2023/03/16 10:42:23;;;;;;;3.55;1.10;;;7.80;99.90;;;;;;5044235;28;20024;-57
2023/03/16 10:44:56;;;;;;;1.73;0.93;;;7.80;99.90;;;;;;5050248;28;20319;-56
2023/03/16 10:47:27;;;;;;;2.85;0.90;;;7.90;99.90;;;;;;5049995;28;20256;-57
2023/03/16 10:49:52;;;;;;;2.70;1.13;;;8.10;99.90;;;;;;5049478;28;20099;-56
2023/03/16 10:52:33;;;;;;;2.20;0.63;;;8.10;99.90;;;;;;5046355;28;20100;-58
2023/03/16 10:55:06;;;;;;;3.33;1.23;;;8.10;98.60;;;;;;5044290;28;20016;-54
2023/03/16 10:57:36;;;;;;;1.77;0.82;;;8.20;99.90;;;;;;5049782;28;20033;-54
2023/03/16 11:00:11;;;;;;;1.30;1.20;;;8.20;95.60;;;;;;5039729;28;20010;-55
2023/03/16 11:02:38;;;;;;;2.17;0.65;;;8.10;95.60;;;;;;5038270;28;20025;-56
2023/03/16 11:05:23;;;;;;;1.50;0.77;;;8.10;95.90;;;;;;5044023;28;20013;-54
2023/03/16 11:07:57;;;;;;;3.92;0.85;;;8.10;94.40;;;;;;5047374;28;20025;-51
2023/03/16 11:10:26;;;;;;;3.97;1.17;;;8.00;95.90;;;;;;5044628;28;20025;-55
2023/03/16 11:12:52;;;;;;;1.50;0.70;;;8.10;95.10;;;;;;5037803;28;20025;-58
2023/03/16 11:15:19;;;;;;;2.10;0.52;;;8.10;93.70;;;;;;5045210;28;20032;-57
2023/03/16 11:17:48;;;;;;;3.10;1.23;;;8.20;94.60;;;;;;5049000;28;20040;-60
2023/03/16 11:20:27;;;;;;;2.33;1.08;;;8.30;92.90;;;;;;5045763;28;20021;-54
2023/03/16 11:22:53;;;;;;;2.15;0.60;;;8.40;92.60;;;;;;5043318;28;20021;-58
2023/03/16 11:25:45;;;;;;;3.88;0.88;;;8.50;92.90;;;;;;5047662;28;20028;-59
2023/03/16 11:28:16;;;;;;;1.45;0.57;;;8.60;92.50;;;;;;5045697;28;20174;-57
2023/03/16 11:31:01;;;;;;;1.02;0.60;;;8.70;86.80;;;;;;5047928;28;20033;-53
2023/03/16 11:33:29;;;;;;;1.05;0.70;;;8.80;89.90;;;;;;5050141;28;20053;-56
2023/03/16 11:36:19;;;;;;;1.00;0.57;;;8.90;80.80;;;;;;5044216;28;20025;-55
2023/03/16 11:39:07;;;;;;;2.05;0.73;;;8.90;80.50;;;;;;5049227;28;20797;-54
2023/03/16 11:41:49;;;;;;;3.08;1.15;;;8.90;86.80;;;;;;5024643;28;20068;-55
2023/03/16 11:44:37;;;;;;;1.42;0.57;;;9.00;81.30;;;;;;5048397;28;20017;-54
2023/03/16 11:47:22;;;;;;;2.72;1.23;;;9.00;83.60;;;;;;5039566;28;20029;-56
2023/03/16 11:50:07;;;;;;;2.45;0.47;;;9.00;86.30;;;;;;5048445;28;20016;-52
2023/03/16 11:52:51;;;;;;;2.58;0.63;;;9.10;86.50;;;;;;5036350;28;20038;-54
2023/03/16 11:55:41;;;;;;;0.82;0.63;;;9.20;82.30;;;;;;5044164;28;20448;-51
2023/03/16 11:58:27;;;;;;;1.40;0.60;;;9.20;81.10;;;;;;5046126;28;20386;-51
2023/03/16 12:01:23;;;;;;;2.25;0.77;;;9.30;78.10;;;;;;5038894;28;20013;-58
2023/03/16 12:04:26;;;;;;;1.67;0.60;;;9.30;76.30;;;;;;5041084;28;20044;-57
2023/03/16 12:06:59;;;;;;;2.38;0.77;;;9.30;74.10;;;;;;5042268;28;20036;-56
2023/03/16 12:09:45;;;;;;;1.10;0.30;;;9.30;77.10;;;;;;5045023;28;20033;-57
2023/03/16 12:12:36;;;;;;;1.67;0.63;;;9.30;75.90;;;;;;5045482;28;20497;-52
2023/03/16 12:15:29;;;;;;;3.10;0.50;;;9.20;76.70;;;;;;5045321;28;20117;-53
2023/03/16 12:18:00;;;;;;;2.15;0.40;;;9.20;76.70;;;;;;5039260;28;20024;-60
2023/03/16 12:20:30;;;;;;;2.92;0.90;;;9.20;74.80;;;;;;5046890;28;20487;-58
2023/03/16 12:23:13;;;;;;;3.78;0.90;;;9.30;76.10;;;;;;5049892;28;20017;-57
2023/03/16 12:25:44;;;;;;;3.45;0.50;;;9.30;78.90;;;;;;5044703;28;20021;-53
2023/03/16 12:28:26;;;;;;;1.98;0.60;;;9.30;71.20;;;;;;5049058;28;20025;-54
2023/03/16 12:31:03;;;;;;;1.65;0.55;;;9.30;72.20;;;;;;5041837;28;20395;-54
2023/03/16 12:34:00;;;;;;;0.73;0.60;;;9.30;73.70;;;;;;5048098;28;20364;-55
2023/03/16 12:36:38;;;;;;;2.42;0.68;;;9.30;74.10;;;;;;5044440;28;20055;-57
2023/03/16 12:39:10;;;;;;;0.80;0.40;;;9.30;74.50;;;;;;5048451;28;20096;-56
2023/03/16 12:41:55;;;;;;;0.43;0.32;;;9.30;72.30;;;;;;5047171;28;20534;-55
2023/03/16 12:44:53;;;;;;;1.73;0.82;;;9.30;73.10;;;;;;5041506;28;20021;-54
2023/03/16 12:47:30;;;;;;;1.25;0.47;;;9.30;69.30;;;;;;5041391;28;20024;-59
2023/03/16 12:50:17;;;;;;;0.85;0.40;;;9.30;72.70;;;;;;5046168;28;20031;-54
2023/03/16 12:52:46;;;;;;;2.30;0.80;;;9.40;71.70;;;;;;5046450;28;20024;-60
2023/03/16 12:55:14;;;;;;;1.20;0.60;;;9.50;72.30;;;;;;5045474;28;20039;-56
2023/03/16 12:57:41;;;;;;;1.23;0.85;;;9.60;74.60;;;;;;5041015;28;20020;-58
2023/03/16 13:00:09;;;;;;;3.22;0.60;;;9.70;76.20;;;;;;5045642;28;20490;-56
2023/03/16 13:02:37;;;;;;;0.85;0.47;;;9.80;71.90;;;;;;5046780;28;20041;-55
2023/03/16 13:05:13;;;;;;;1.02;0.65;;;9.80;69.40;;;;;;5044923;28;20032;-56